createdAt,value
2022-10-05T00:00:17.058Z,99.90
2022-10-05T00:02:44.572Z,99.90
2022-10-05T00:05:33.757Z,99.90
2022-10-05T00:08:25.051Z,99.90
2022-10-05T00:10:52.458Z,99.90
2022-10-05T00:13:28.980Z,99.90
2022-10-05T00:16:11.712Z,99.90
2022-10-05T00:18:39.309Z,99.90
2022-10-05T00:21:19.631Z,99.90
2022-10-05T00:23:46.770Z,99.90
2022-10-05T00:26:25.430Z,99.90
2022-10-05T00:28:53.656Z,99.90
2022-10-05T00:31:25.969Z,99.90
2022-10-05T00:33:54.889Z,99.90
2022-10-05T00:36:21.643Z,99.90
2022-10-05T00:38:48.480Z,99.90
2022-10-05T00:41:23.357Z,99.90
2022-10-05T00:44:28.899Z,99.90
2022-10-05T00:47:07.780Z,99.90
2022-10-05T00:50:18.142Z,99.90
2022-10-05T00:53:29.034Z,99.90
2022-10-05T00:56:01.559Z,99.90
2022-10-05T00:58:55.482Z,99.90
2022-10-05T01:01:33.728Z,99.90
2022-10-05T01:04:15.503Z,99.90
2022-10-05T01:07:12.885Z,99.90
2022-10-05T01:10:10.698Z,99.90
2022-10-05T01:12:47.902Z,99.90
2022-10-05T01:15:24.435Z,99.90
2022-10-05T01:18:00.781Z,99.90
2022-10-05T01:21:05.878Z,99.90
2022-10-05T01:23:41.768Z,99.90
2022-10-05T01:26:14.624Z,99.90
2022-10-05T01:28:47.451Z,99.90
2022-10-05T01:31:35.254Z,99.90
2022-10-05T01:34:17.331Z,99.90
2022-10-05T01:37:00.728Z,99.90
2022-10-05T01:39:54.777Z,99.90
2022-10-05T01:42:42.075Z,99.90
2022-10-05T01:45:22.153Z,99.90
2022-10-05T01:47:58.012Z,99.90
2022-10-05T01:50:52.642Z,99.90
2022-10-05T01:53:30.733Z,99.90
2022-10-05T01:56:20.326Z,99.90
2022-10-05T01:59:28.803Z,99.90
2022-10-05T02:02:05.205Z,99.90
2022-10-05T02:05:02.341Z,99.90
2022-10-05T02:07:53.240Z,99.90
2022-10-05T02:10:28.291Z,99.90
2022-10-05T02:13:00.891Z,99.90
2022-10-05T02:15:36.908Z,99.90
2022-10-05T02:18:10.757Z,99.90
2022-10-05T02:20:42.185Z,99.90
2022-10-05T02:23:15.982Z,99.90
2022-10-05T02:25:46.835Z,99.90
2022-10-05T02:28:22.820Z,99.90
2022-10-05T02:30:58.653Z,99.90
2022-10-05T02:33:31.529Z,99.90
2022-10-05T02:36:23.435Z,99.90
2022-10-05T02:39:02.135Z,99.90
2022-10-05T02:41:58.843Z,99.90
2022-10-05T02:44:51.907Z,99.90
2022-10-05T02:47:33.483Z,99.90
2022-10-05T02:50:27.053Z,99.90
2022-10-05T02:53:14.304Z,99.90
2022-10-05T02:55:52.059Z,99.90
2022-10-05T02:58:23.371Z,99.90
2022-10-05T03:01:12.581Z,99.90
2022-10-05T03:04:09.850Z,99.90
2022-10-05T03:06:48.041Z,99.90
2022-10-05T03:09:18.168Z,99.90
2022-10-05T03:12:07.289Z,99.90
2022-10-05T03:14:55.968Z,99.90
2022-10-05T03:17:28.963Z,99.90
2022-10-05T03:20:28.291Z,99.90
2022-10-05T03:23:01.972Z,99.90
2022-10-05T03:25:49.676Z,99.90
2022-10-05T03:28:30.602Z,99.90
2022-10-05T03:31:14.830Z,99.90
2022-10-05T03:34:25.321Z,99.90
2022-10-05T03:37:23.843Z,99.90
2022-10-05T03:40:30.026Z,99.90
2022-10-05T03:43:16.758Z,99.90
2022-10-05T03:46:05.668Z,99.90
2022-10-05T03:48:40.016Z,99.90
2022-10-05T03:51:32.028Z,99.90
2022-10-05T03:54:29.619Z,99.90
2022-10-05T03:57:09.697Z,99.90
2022-10-05T03:59:46.746Z,99.90
2022-10-05T04:02:22.879Z,99.90
2022-10-05T04:04:56.862Z,99.90
2022-10-05T04:07:50.523Z,99.90
2022-10-05T04:10:22.347Z,99.90
2022-10-05T04:12:58.092Z,99.90
2022-10-05T04:15:44.998Z,99.90
2022-10-05T04:18:25.492Z,99.90
2022-10-05T04:20:57.604Z,99.90
2022-10-05T04:23:39.443Z,99.90
2022-10-05T04:26:19.372Z,99.90
2022-10-05T04:29:25.235Z,99.90
2022-10-05T04:32:19.173Z,99.90
2022-10-05T04:34:53.522Z,99.90
2022-10-05T04:37:34.283Z,99.90
2022-10-05T04:40:28.062Z,99.90
2022-10-05T04:43:13.515Z,99.90
2022-10-05T04:46:31.558Z,99.90
2022-10-05T04:49:24.989Z,99.90
2022-10-05T04:52:42.773Z,99.90
2022-10-05T04:55:37.311Z,99.90
2022-10-05T04:58:42.366Z,99.90
2022-10-05T05:01:35.520Z,99.90
2022-10-05T05:04:13.788Z,99.90
2022-10-05T05:07:04.628Z,99.90
2022-10-05T05:09:55.980Z,99.90
2022-10-05T05:12:31.503Z,99.90
2022-10-05T05:15:12.221Z,99.90
2022-10-05T05:18:07.686Z,99.90
2022-10-05T05:21:16.611Z,99.90
2022-10-05T05:24:05.670Z,99.90
2022-10-05T05:26:44.163Z,99.90
2022-10-05T05:29:22.924Z,99.90
2022-10-05T05:32:12.849Z,99.90
2022-10-05T05:35:00.517Z,99.90
2022-10-05T05:37:46.181Z,99.90
2022-10-05T05:40:18.040Z,99.90
2022-10-05T05:42:56.074Z,99.90
2022-10-05T05:45:40.679Z,99.90
2022-10-05T05:48:25.144Z,99.90
2022-10-05T05:51:04.036Z,99.90
2022-10-05T05:53:43.855Z,99.90
2022-10-05T05:56:34.439Z,99.90
2022-10-05T05:59:17.019Z,99.90
2022-10-05T06:01:48.894Z,99.90
2022-10-05T06:04:27.035Z,99.90
2022-10-05T06:06:57.968Z,99.90
2022-10-05T06:09:43.203Z,99.90
2022-10-05T06:12:37.056Z,99.90
2022-10-05T06:15:37.764Z,99.90
2022-10-05T06:18:14.447Z,99.90
2022-10-05T06:20:52.238Z,99.90
2022-10-05T06:23:52.535Z,99.90
2022-10-05T06:26:19.570Z,99.90
2022-10-05T06:28:58.163Z,99.90
2022-10-05T06:32:02.981Z,99.90
2022-10-05T06:34:58.232Z,99.90
2022-10-05T06:37:50.216Z,99.90
2022-10-05T06:40:33.380Z,99.90
2022-10-05T06:43:30.631Z,99.90
2022-10-05T06:46:33.836Z,99.90
2022-10-05T06:49:32.133Z,99.90
2022-10-05T06:52:30.649Z,99.90
2022-10-05T06:55:14.316Z,99.90
2022-10-05T06:57:58.096Z,99.90
2022-10-05T07:00:34.258Z,99.90
2022-10-05T07:03:05.313Z,99.90
2022-10-05T07:06:02.491Z,99.90
2022-10-05T07:08:51.481Z,99.90
2022-10-05T07:11:52.717Z,99.90
2022-10-05T07:14:32.432Z,99.90
2022-10-05T07:17:23.363Z,99.90
2022-10-05T07:20:08.446Z,99.90
2022-10-05T07:22:50.313Z,99.90
2022-10-05T07:25:22.845Z,99.90
2022-10-05T07:28:19.838Z,99.90
2022-10-05T07:30:55.419Z,99.90
2022-10-05T07:33:47.409Z,99.90
2022-10-05T07:36:44.346Z,99.90
2022-10-05T07:39:55.460Z,99.90
2022-10-05T07:42:50.695Z,99.90
2022-10-05T07:45:33.142Z,99.90
2022-10-05T07:48:22.518Z,99.90
2022-10-05T07:51:11.172Z,99.90
2022-10-05T07:53:44.491Z,99.90
2022-10-05T07:56:23.574Z,99.90
2022-10-05T07:59:13.686Z,99.90
2022-10-05T08:01:48.622Z,99.90
2022-10-05T08:04:21.899Z,99.90
2022-10-05T08:06:56.574Z,99.90
2022-10-05T08:09:56.573Z,99.90
2022-10-05T08:12:34.363Z,99.90
2022-10-05T08:15:14.458Z,99.90
2022-10-05T08:17:59.973Z,99.90
2022-10-05T08:20:38.769Z,99.90
2022-10-05T08:23:39.527Z,99.90
2022-10-05T08:26:22.546Z,99.90
2022-10-05T08:29:03.310Z,99.90
2022-10-05T08:31:35.752Z,99.90
2022-10-05T08:34:17.393Z,99.90
2022-10-05T08:37:02.498Z,99.90
2022-10-05T08:39:36.136Z,99.90
2022-10-05T08:42:32.392Z,99.90
2022-10-05T08:45:11.077Z,99.90
2022-10-05T08:48:09.653Z,99.90
2022-10-05T08:51:05.772Z,99.90
2022-10-05T08:53:50.960Z,99.90
2022-10-05T08:56:39.030Z,99.90
2022-10-05T08:59:24.469Z,99.90
2022-10-05T09:02:10.758Z,99.90
2022-10-05T09:04:46.234Z,99.90
2022-10-05T09:07:38.645Z,99.90
2022-10-05T09:10:29.774Z,99.90
2022-10-05T09:13:18.905Z,99.90
2022-10-05T09:16:17.981Z,99.90
2022-10-05T09:18:47.836Z,99.90
2022-10-05T09:21:33.137Z,99.90
2022-10-05T09:24:11.017Z,99.90
2022-10-05T09:26:40.718Z,99.90
2022-10-05T09:29:16.541Z,99.90
2022-10-05T09:32:20.885Z,99.90
2022-10-05T09:35:11.659Z,99.90
2022-10-05T09:37:50.476Z,99.90
2022-10-05T09:40:49.487Z,99.90
2022-10-05T09:43:26.599Z,99.90
2022-10-05T09:46:12.467Z,99.90
2022-10-05T09:49:07.388Z,99.90
2022-10-05T09:52:19.645Z,99.90
2022-10-05T09:55:31.493Z,99.90
2022-10-05T09:58:14.274Z,99.90
2022-10-05T10:01:08.996Z,99.90
2022-10-05T10:04:10.063Z,99.90
2022-10-05T10:07:13.676Z,99.90
2022-10-05T10:09:49.702Z,99.90
2022-10-05T10:12:34.616Z,99.90
2022-10-05T10:15:25.878Z,99.90
2022-10-05T10:18:16.599Z,99.90
2022-10-05T10:21:03.052Z,99.90
2022-10-05T10:24:00.968Z,99.90
2022-10-05T10:26:33.515Z,99.90
2022-10-05T10:32:05.894Z,99.90
2022-10-05T10:34:52.603Z,99.90
2022-10-05T10:37:31.509Z,99.90
2022-10-05T10:40:29.884Z,99.90
2022-10-05T10:42:59.288Z,99.90
2022-10-05T10:45:47.189Z,99.90
2022-10-05T10:48:19.575Z,99.90
2022-10-05T10:51:19.248Z,99.90
2022-10-05T10:54:12.151Z,99.90
2022-10-05T10:57:03.967Z,99.90
2022-10-05T10:59:45.218Z,99.90
2022-10-05T11:02:27.291Z,99.90
2022-10-05T11:05:23.108Z,99.90
2022-10-05T11:08:17.203Z,99.90
2022-10-05T11:11:18.154Z,99.90
2022-10-05T11:13:52.501Z,99.90
2022-10-05T11:16:40.886Z,99.90
2022-10-05T11:19:40.496Z,99.90
2022-10-05T11:22:54.973Z,99.90
2022-10-05T11:25:42.773Z,99.90
2022-10-05T11:28:27.647Z,99.90
2022-10-05T11:31:22.754Z,99.90
2022-10-05T11:34:02.464Z,99.90
2022-10-05T11:36:53.776Z,98.90
2022-10-05T11:39:38.092Z,97.70
2022-10-05T11:42:24.755Z,98.10
2022-10-05T11:45:11.729Z,98.90
2022-10-05T11:47:53.459Z,97.50
2022-10-05T11:50:39.523Z,98.00
2022-10-05T11:53:34.658Z,97.60
2022-10-05T11:56:08.135Z,96.40
2022-10-05T11:58:50.383Z,95.60
2022-10-05T12:01:34.557Z,95.70
2022-10-05T12:04:26.127Z,96.80
2022-10-05T12:07:20.492Z,98.50
2022-10-05T12:10:14.551Z,98.70
2022-10-05T12:13:13.324Z,98.70
2022-10-05T12:16:02.615Z,98.70
2022-10-05T12:18:32.607Z,98.10
2022-10-05T12:21:07.204Z,98.50
2022-10-05T12:23:41.476Z,98.10
2022-10-05T12:26:23.193Z,96.80
2022-10-05T12:29:01.544Z,95.90
2022-10-05T12:31:43.144Z,94.90
2022-10-05T12:34:17.380Z,92.50
2022-10-05T12:37:03.561Z,92.70
2022-10-05T12:39:50.388Z,93.20
2022-10-05T12:42:22.979Z,92.70
2022-10-05T12:45:10.760Z,92.30
2022-10-05T12:48:02.349Z,91.90
2022-10-05T12:50:36.695Z,91.60
2022-10-05T12:53:22.515Z,91.00
2022-10-05T12:56:00.689Z,92.20
2022-10-05T12:58:42.819Z,91.80
2022-10-05T13:01:35.644Z,92.20
2022-10-05T13:04:32.692Z,92.00
2022-10-05T13:07:13.039Z,91.40
2022-10-05T13:09:52.516Z,91.20
2022-10-05T13:12:41.249Z,91.70
2022-10-05T13:15:26.871Z,92.70
2022-10-05T13:18:19.121Z,92.80
2022-10-05T13:21:27.301Z,92.50
2022-10-05T13:24:17.614Z,93.80
2022-10-05T13:26:50.731Z,93.30
2022-10-05T13:29:42.713Z,92.20
2022-10-05T13:32:32.089Z,90.90
2022-10-05T13:35:24.191Z,92.90
2022-10-05T13:38:29.586Z,93.70
2022-10-05T13:41:13.426Z,94.40
2022-10-05T13:44:04.461Z,94.90
2022-10-05T13:46:38.286Z,95.00
2022-10-05T13:49:55.069Z,94.10
2022-10-05T13:52:34.921Z,93.10
2022-10-05T13:55:22.018Z,94.60
2022-10-05T13:57:55.118Z,93.60
2022-10-05T14:00:26.609Z,93.00
2022-10-05T14:02:57.010Z,92.00
2022-10-05T14:05:27.023Z,90.90
2022-10-05T14:08:02.595Z,90.10
2022-10-05T14:10:40.768Z,87.80
2022-10-05T14:13:46.678Z,85.10
2022-10-05T14:16:13.530Z,83.90
2022-10-05T14:18:59.159Z,82.80
2022-10-05T14:21:30.482Z,82.10
2022-10-05T14:24:44.007Z,80.90
2022-10-05T14:27:25.587Z,81.00
2022-10-05T14:30:16.816Z,79.10
2022-10-05T14:32:57.375Z,78.80
2022-10-05T14:35:49.190Z,78.20
2022-10-05T14:38:25.664Z,77.60
2022-10-05T14:41:17.210Z,79.40
2022-10-05T14:44:16.782Z,79.70
2022-10-05T14:46:54.507Z,81.40
2022-10-05T14:49:25.707Z,82.60
2022-10-05T14:51:53.832Z,83.20
2022-10-05T14:54:29.686Z,84.60
2022-10-05T14:57:17.021Z,85.50
2022-10-05T15:00:22.626Z,86.60
2022-10-05T15:03:27.259Z,88.30
2022-10-05T15:05:58.742Z,88.90
2022-10-05T15:08:31.418Z,88.10
2022-10-05T15:11:25.883Z,87.20
2022-10-05T15:13:53.515Z,87.40
2022-10-05T15:16:26.114Z,88.00
2022-10-05T15:19:18.514Z,87.70
2022-10-05T15:22:00.979Z,86.30
2022-10-05T15:24:45.688Z,87.10
2022-10-05T15:27:26.133Z,88.30
2022-10-05T15:30:03.432Z,90.00
2022-10-05T15:32:42.587Z,91.10
2022-10-05T15:35:31.177Z,92.70
2022-10-05T15:38:25.732Z,94.00
2022-10-05T15:41:19.950Z,96.10
2022-10-05T15:43:53.650Z,98.00
2022-10-05T15:46:34.040Z,99.80
2022-10-05T15:49:11.483Z,99.90
2022-10-05T15:51:48.447Z,99.90
2022-10-05T15:54:40.614Z,99.90
2022-10-05T15:57:13.398Z,99.90
2022-10-05T16:00:00.530Z,99.90
2022-10-05T16:02:52.961Z,99.90
2022-10-05T16:05:42.728Z,99.90
2022-10-05T16:08:56.423Z,99.90
2022-10-05T16:11:49.094Z,99.90
2022-10-05T16:14:29.088Z,99.90
2022-10-05T16:17:15.436Z,99.90
2022-10-05T16:19:42.125Z,99.90
2022-10-05T16:23:02.572Z,99.90
2022-10-05T16:25:50.550Z,99.90
2022-10-05T16:28:33.430Z,99.90
2022-10-05T16:31:12.981Z,99.90
2022-10-05T16:33:46.741Z,99.90
2022-10-05T16:36:52.421Z,99.90
2022-10-05T16:39:25.370Z,99.90
2022-10-05T16:42:19.836Z,99.90
2022-10-05T16:45:11.055Z,99.90
2022-10-05T16:47:59.313Z,99.90
2022-10-05T16:50:55.205Z,99.90
2022-10-05T16:53:36.296Z,99.90
2022-10-05T16:56:11.169Z,99.90
2022-10-05T16:58:56.509Z,99.90
2022-10-05T17:01:58.580Z,99.90
2022-10-05T17:04:35.509Z,99.90
2022-10-05T17:07:24.276Z,99.90
2022-10-05T17:10:08.017Z,99.90
2022-10-05T17:12:53.123Z,99.90
2022-10-05T17:16:04.158Z,99.90
2022-10-05T17:18:51.343Z,99.90
2022-10-05T17:21:46.157Z,99.90
2022-10-05T17:24:23.398Z,99.90
2022-10-05T17:27:02.791Z,99.90
2022-10-05T17:29:47.525Z,99.90
2022-10-05T17:32:17.422Z,99.90
2022-10-05T17:35:18.151Z,99.90
2022-10-05T17:38:14.085Z,99.90
2022-10-05T17:41:03.242Z,99.90
2022-10-05T17:43:31.521Z,99.90
2022-10-05T17:46:10.935Z,99.90
2022-10-05T17:49:01.276Z,99.90
2022-10-05T17:51:46.604Z,99.90
2022-10-05T17:55:00.679Z,99.90
2022-10-05T17:57:27.823Z,99.90
2022-10-05T17:59:57.484Z,99.90
2022-10-05T18:02:36.952Z,99.90
2022-10-05T18:05:06.716Z,99.90
2022-10-05T18:07:35.256Z,99.90
2022-10-05T18:10:15.283Z,99.90
2022-10-05T18:12:48.239Z,99.90
2022-10-05T18:15:24.033Z,99.90
2022-10-05T18:17:57.413Z,99.90
2022-10-05T18:20:24.140Z,99.90
2022-10-05T18:22:53.219Z,99.90
2022-10-05T18:25:25.989Z,99.90
2022-10-05T18:28:14.456Z,99.90
2022-10-05T18:31:03.065Z,99.90
2022-10-05T18:34:02.414Z,99.90
2022-10-05T18:36:57.188Z,99.90
2022-10-05T18:39:45.255Z,99.90
2022-10-05T18:42:37.725Z,99.90
2022-10-05T18:45:25.483Z,99.90
2022-10-05T18:48:24.820Z,99.90
2022-10-05T18:51:28.326Z,99.90
2022-10-05T18:54:18.314Z,99.90
2022-10-05T18:56:52.750Z,99.90
2022-10-05T18:59:43.892Z,99.90
2022-10-05T19:02:27.489Z,99.90
2022-10-05T19:05:46.854Z,99.90
2022-10-05T19:08:33.679Z,99.90
2022-10-05T19:11:27.843Z,99.90
2022-10-05T19:14:10.465Z,99.90
2022-10-05T19:17:08.022Z,99.90
2022-10-05T19:19:57.444Z,99.90
2022-10-05T19:22:32.943Z,99.90
2022-10-05T19:25:05.539Z,99.90
2022-10-05T19:27:55.072Z,99.90
2022-10-05T19:30:30.000Z,99.90
2022-10-05T19:33:20.199Z,99.90
2022-10-05T19:35:58.011Z,99.90
2022-10-05T19:38:52.317Z,99.90
2022-10-05T19:41:35.567Z,99.90
2022-10-05T19:44:44.266Z,99.90
2022-10-05T19:47:29.064Z,99.90
2022-10-05T19:49:55.802Z,99.90
2022-10-05T19:52:36.534Z,99.90
2022-10-05T19:55:21.149Z,99.90
2022-10-05T19:57:56.242Z,99.90
2022-10-05T20:00:26.744Z,99.90
2022-10-05T20:03:15.258Z,99.90
2022-10-05T20:05:42.206Z,99.90
2022-10-05T20:08:14.728Z,99.90
2022-10-05T20:10:41.498Z,99.90
2022-10-05T20:13:18.732Z,99.90
2022-10-05T20:16:34.580Z,99.90
2022-10-05T20:19:20.912Z,99.90
2022-10-05T20:21:53.324Z,99.90
2022-10-05T20:24:25.764Z,99.90
2022-10-05T20:27:07.082Z,99.90
2022-10-05T20:29:38.100Z,99.90
2022-10-05T20:32:13.256Z,99.90
2022-10-05T20:34:43.428Z,99.90
2022-10-05T20:37:17.212Z,99.90
2022-10-05T20:39:45.046Z,99.90
2022-10-05T20:42:12.199Z,99.90
2022-10-05T20:44:39.661Z,99.90
2022-10-05T20:47:09.926Z,99.90
2022-10-05T20:49:39.093Z,99.90
2022-10-05T20:52:09.748Z,99.90
2022-10-05T20:54:38.521Z,99.90
2022-10-05T20:57:09.541Z,99.90
2022-10-05T20:59:37.866Z,99.90
2022-10-05T21:02:05.683Z,99.90
2022-10-05T21:04:40.885Z,99.90
2022-10-05T21:07:08.333Z,99.90
2022-10-05T21:09:37.894Z,99.90
2022-10-05T21:12:04.718Z,99.90
2022-10-05T21:14:34.131Z,99.90
2022-10-05T21:17:01.853Z,99.90
2022-10-05T21:19:29.403Z,99.90
2022-10-05T21:21:59.341Z,99.90
2022-10-05T21:24:27.576Z,99.90
2022-10-05T21:26:57.414Z,99.90
2022-10-05T21:29:24.180Z,99.90
2022-10-05T21:31:51.144Z,99.90
2022-10-05T21:34:17.956Z,99.90
2022-10-05T21:36:44.543Z,99.90
2022-10-05T21:39:11.257Z,99.90
2022-10-05T21:41:38.002Z,99.90
2022-10-05T21:44:06.200Z,99.90
2022-10-05T21:46:36.241Z,99.90
2022-10-05T21:49:03.130Z,99.90
2022-10-05T21:51:29.854Z,99.90
2022-10-05T21:53:58.242Z,99.90
2022-10-05T21:56:30.375Z,99.90
2022-10-05T21:58:57.721Z,99.90
2022-10-05T22:01:24.518Z,99.90
2022-10-05T22:03:51.708Z,99.90
2022-10-05T22:06:18.373Z,99.90
2022-10-05T22:08:45.114Z,99.90
2022-10-05T22:11:15.937Z,99.90
2022-10-05T22:13:48.677Z,99.90
2022-10-05T22:16:17.013Z,99.90
2022-10-05T22:18:44.033Z,99.90
2022-10-05T22:21:13.164Z,99.90
2022-10-05T22:23:41.652Z,99.90
2022-10-05T22:26:10.805Z,99.90
2022-10-05T22:28:39.809Z,99.90
2022-10-05T22:31:07.934Z,99.90
2022-10-05T22:33:34.980Z,99.90
2022-10-05T22:36:01.782Z,99.90
2022-10-05T22:38:30.575Z,99.90
2022-10-05T22:40:57.983Z,99.90
2022-10-05T22:43:26.905Z,99.90
2022-10-05T22:45:54.210Z,99.90
2022-10-05T22:48:20.966Z,99.90
2022-10-05T22:50:48.044Z,99.90
2022-10-05T22:53:14.909Z,99.90
2022-10-05T22:55:41.532Z,99.90
2022-10-05T22:58:08.296Z,99.90
2022-10-05T23:00:57.188Z,99.90
2022-10-05T23:03:21.622Z,99.90
2022-10-05T23:05:48.332Z,99.90
2022-10-05T23:08:16.013Z,99.90
2022-10-05T23:10:43.289Z,99.90
2022-10-05T23:13:10.128Z,99.90
2022-10-05T23:15:36.704Z,99.90
2022-10-05T23:18:03.471Z,99.90
2022-10-05T23:20:30.181Z,99.90
2022-10-05T23:22:58.705Z,99.90
2022-10-05T23:25:25.675Z,99.90
2022-10-05T23:27:52.451Z,99.90
2022-10-05T23:30:19.246Z,99.90
2022-10-05T23:32:45.896Z,99.90
2022-10-05T23:35:13.278Z,99.90
2022-10-05T23:37:42.975Z,99.90
2022-10-05T23:40:12.302Z,99.90
2022-10-05T23:42:40.261Z,99.90
2022-10-05T23:45:10.962Z,99.90
2022-10-05T23:47:38.672Z,99.90
2022-10-05T23:50:06.956Z,99.90
2022-10-05T23:52:34.987Z,99.90
2022-10-05T23:55:02.727Z,99.90
2022-10-05T23:57:29.429Z,99.90
2022-10-05T23:59:56.311Z,99.90
